Time;durP1;ratioP1;P1;durP2;ratioP2;P2;SDS_P1;SDS_P2;PMS_P1;PMS_P2;Temp;Humidity;BMP_temperature;BMP_pressure;BME280_temperature;BME280_humidity;BME280_pressure;Samples;Min_cycle;Max_cycle;Signal;HPM_P1;HPM_P2
2022/03/19 00:00:42;;;;;;;15.75;10.15;;;19.50;37.90;;;;;;5164208;27;49035;-11
2022/03/19 00:03:09;;;;;;;17.42;10.15;;;19.50;38.00;;;;;;5165549;27;47604;-10
2022/03/19 00:05:36;;;;;;;12.35;9.75;;;19.40;37.80;;;;;;5164119;27;46950;-12
2022/03/19 00:08:03;;;;;;;19.90;9.63;;;19.40;38.10;;;;;;5165161;27;47694;-15
2022/03/19 00:10:29;;;;;;;12.60;9.57;;;19.40;38.30;;;;;;5163386;27;47019;-15
2022/03/19 00:12:58;;;;;;;17.98;9.93;;;19.40;38.30;;;;;;5164999;27;47269;-13
2022/03/19 00:15:25;;;;;;;12.25;9.32;;;19.40;38.10;;;;;;5162447;27;47129;-14
2022/03/19 00:17:54;;;;;;;12.50;8.88;;;19.40;38.00;;;;;;5164778;27;46946;-12
2022/03/19 00:20:20;;;;;;;11.57;8.93;;;19.40;37.70;;;;;;5163980;27;48074;-13
2022/03/19 00:22:47;;;;;;;14.73;9.00;;;19.40;37.70;;;;;;5164656;27;47269;-13
2022/03/19 00:25:14;;;;;;;13.13;9.43;;;19.40;37.70;;;;;;5163967;27;47018;-13
2022/03/19 00:27:41;;;;;;;11.55;9.27;;;19.30;37.70;;;;;;5163000;27;47009;-12
2022/03/19 00:30:08;;;;;;;14.35;9.23;;;19.30;38.00;;;;;;5163814;27;47145;-13
2022/03/19 00:32:35;;;;;;;14.90;9.45;;;19.30;37.80;;;;;;5164536;27;47007;-12
2022/03/19 00:35:03;;;;;;;18.15;9.48;;;19.30;37.80;;;;;;5163408;27;46990;-12
2022/03/19 00:37:32;;;;;;;11.55;9.40;;;19.30;38.10;;;;;;5164748;27;47330;-13
2022/03/19 00:39:58;;;;;;;9.20;8.25;;;19.30;37.90;;;;;;5163523;27;48566;-12
2022/03/19 00:42:25;;;;;;;11.48;8.30;;;19.30;37.70;;;;;;5164559;27;47203;-13
2022/03/19 00:44:52;;;;;;;13.57;9.27;;;19.20;37.70;;;;;;5126761;27;47066;-13
2022/03/19 00:47:19;;;;;;;10.77;8.50;;;19.20;37.70;;;;;;5145164;27;47268;-13
2022/03/19 00:49:45;;;;;;;12.73;8.95;;;19.20;37.70;;;;;;5134623;27;48124;-12
2022/03/19 00:52:13;;;;;;;13.52;9.50;;;19.20;37.80;;;;;;5146742;27;47399;-13
2022/03/19 00:54:40;;;;;;;9.18;8.20;;;19.20;37.70;;;;;;5140403;27;48006;-12
2022/03/19 00:57:07;;;;;;;10.80;9.27;;;19.20;37.70;;;;;;5147444;27;47286;-13
2022/03/19 00:59:33;;;;;;;11.20;8.93;;;19.10;37.70;;;;;;5146951;27;47702;-12
2022/03/19 01:02:00;;;;;;;12.93;8.63;;;19.10;37.80;;;;;;5147320;27;46884;-13
2022/03/19 01:04:27;;;;;;;11.65;8.70;;;19.10;37.70;;;;;;5145762;27;46859;-13
2022/03/19 01:06:54;;;;;;;12.95;8.75;;;19.00;37.70;;;;;;5146982;27;46889;-13
2022/03/19 01:09:22;;;;;;;9.38;8.23;;;19.00;37.80;;;;;;5146830;27;48870;-13
2022/03/19 01:11:48;;;;;;;10.73;8.23;;;19.00;37.80;;;;;;5147601;27;46968;-12
2022/03/19 01:14:15;;;;;;;11.93;8.00;;;18.90;37.90;;;;;;5146850;27;46944;-12
2022/03/19 01:16:42;;;;;;;10.48;7.90;;;18.90;37.90;;;;;;5147418;27;47165;-12
2022/03/19 01:19:08;;;;;;;9.90;7.80;;;18.90;38.60;;;;;;5146774;27;47885;-12
2022/03/19 01:21:36;;;;;;;10.30;8.65;;;18.80;38.00;;;;;;5146870;27;47388;-13
2022/03/19 01:24:03;;;;;;;9.52;8.07;;;18.80;37.90;;;;;;5148276;27;46983;-12
2022/03/19 01:26:31;;;;;;;9.82;8.23;;;18.80;38.00;;;;;;5151012;27;46933;-13
2022/03/19 01:28:58;;;;;;;11.90;8.30;;;18.80;38.10;;;;;;5150129;27;48617;-12
2022/03/19 01:31:26;;;;;;;11.73;7.85;;;18.80;38.10;;;;;;5150295;27;46737;-13
2022/03/19 01:33:52;;;;;;;8.93;7.95;;;18.70;38.00;;;;;;5150366;27;46927;-12
2022/03/19 01:36:19;;;;;;;9.15;8.20;;;18.70;38.10;;;;;;5150380;27;46971;-13
2022/03/19 01:38:46;;;;;;;8.93;7.55;;;18.70;38.00;;;;;;5150191;27;48145;-16
2022/03/19 01:41:12;;;;;;;10.48;8.43;;;18.70;37.90;;;;;;5149979;27;46806;-12
2022/03/19 01:43:41;;;;;;;9.80;7.90;;;18.60;37.90;;;;;;5149958;27;46882;-13
2022/03/19 01:46:08;;;;;;;10.20;8.15;;;18.60;38.00;;;;;;5150274;27;47268;-12
2022/03/19 01:48:34;;;;;;;9.77;8.15;;;18.60;37.80;;;;;;5149720;27;48296;-13
2022/03/19 01:51:01;;;;;;;10.73;8.30;;;18.60;37.90;;;;;;5150110;27;46871;-13
2022/03/19 01:53:28;;;;;;;10.15;7.68;;;18.60;37.80;;;;;;5149715;27;46843;-13
2022/03/19 01:55:55;;;;;;;8.73;7.55;;;18.50;37.80;;;;;;5150072;27;46918;-14
2022/03/19 01:58:21;;;;;;;9.88;7.80;;;18.50;37.90;;;;;;5149823;27;47966;-13
2022/03/19 02:00:49;;;;;;;11.10;8.05;;;18.50;37.70;;;;;;5149861;27;47371;-13
2022/03/19 02:03:16;;;;;;;9.02;7.43;;;18.50;37.90;;;;;;5149882;27;46989;-13
2022/03/19 02:05:43;;;;;;;9.75;8.63;;;18.40;37.60;;;;;;5150154;27;46919;-14
2022/03/19 02:08:09;;;;;;;9.75;8.13;;;18.40;37.80;;;;;;5149390;27;47884;-13
2022/03/19 02:10:36;;;;;;;9.25;8.05;;;18.40;37.60;;;;;;5150038;27;46805;-13
2022/03/19 02:13:03;;;;;;;9.82;7.95;;;18.40;37.60;;;;;;5149497;27;47015;-13
2022/03/19 02:15:30;;;;;;;9.45;7.72;;;18.40;37.60;;;;;;5149790;27;46841;-13
2022/03/19 02:17:58;;;;;;;8.82;7.93;;;18.40;37.80;;;;;;5149558;27;46894;-12
2022/03/19 02:20:24;;;;;;;10.40;8.25;;;18.40;37.70;;;;;;5149525;27;47229;-13
2022/03/19 02:25:40;;;;;;;10.45;8.63;;;18.30;37.60;;;;;;5146914;27;46911;-13
2022/03/19 02:28:07;;;;;;;8.73;7.82;;;18.30;37.70;;;;;;5149319;27;48812;-13
2022/03/19 02:30:34;;;;;;;8.43;7.15;;;18.30;37.70;;;;;;5149612;27;46995;-13
2022/03/19 02:33:01;;;;;;;9.27;7.40;;;18.30;37.80;;;;;;5149256;27;46936;-12
2022/03/19 02:35:28;;;;;;;8.32;7.53;;;18.30;37.60;;;;;;5148224;27;46816;-13
2022/03/19 02:37:56;;;;;;;10.27;8.10;;;18.30;37.80;;;;;;5149107;27;47063;-13
2022/03/19 02:40:23;;;;;;;9.90;7.93;;;18.20;37.70;;;;;;5149232;27;47445;-13
2022/03/19 02:42:50;;;;;;;8.77;7.88;;;18.30;37.70;;;;;;5149396;27;46804;-14
2022/03/19 02:45:17;;;;;;;8.50;7.60;;;18.20;37.60;;;;;;5149428;27;47347;-13
2022/03/19 02:47:59;;;;;;;10.00;8.77;;;18.20;37.70;;;;;;5149643;27;47062;-12
2022/03/19 02:50:28;;;;;;;10.55;8.27;;;18.20;37.70;;;;;;5149270;27;46891;-12
2022/03/19 02:52:57;;;;;;;8.68;7.40;;;18.20;37.50;;;;;;5149021;27;46997;-14
2022/03/19 02:55:24;;;;;;;9.38;7.82;;;18.10;37.60;;;;;;5149326;27;46940;-13
2022/03/19 02:57:50;;;;;;;9.65;8.32;;;18.10;37.60;;;;;;5149122;27;49119;-13
2022/03/19 03:00:17;;;;;;;8.85;7.93;;;18.10;37.60;;;;;;5148778;27;46871;-13
2022/03/19 03:02:44;;;;;;;10.77;8.20;;;18.10;37.60;;;;;;5148981;27;47020;-13
2022/03/19 03:05:13;;;;;;;9.00;7.93;;;18.10;37.50;;;;;;5148825;27;46797;-13
2022/03/19 03:07:41;;;;;;;8.38;7.43;;;18.10;37.60;;;;;;5149096;27;49342;-13
2022/03/19 03:10:09;;;;;;;9.68;8.30;;;18.10;37.60;;;;;;5148625;27;47255;-12
2022/03/19 03:12:36;;;;;;;9.98;8.70;;;18.10;37.70;;;;;;5148812;27;46902;-13
2022/03/19 03:15:03;;;;;;;10.60;8.43;;;18.10;37.60;;;;;;5148509;27;47218;-13
2022/03/19 03:17:30;;;;;;;11.40;8.43;;;18.00;37.60;;;;;;5148832;27;47068;-13
2022/03/19 03:19:57;;;;;;;8.52;7.63;;;18.10;37.50;;;;;;5148215;27;46922;-13
2022/03/19 03:22:23;;;;;;;9.32;8.43;;;18.00;37.50;;;;;;5148581;27;46816;-13
2022/03/19 03:24:50;;;;;;;9.20;8.25;;;18.00;37.60;;;;;;5148673;27;46906;-12
2022/03/19 03:27:18;;;;;;;9.98;7.90;;;18.00;37.50;;;;;;5148226;27;48992;-13
2022/03/19 03:29:45;;;;;;;8.88;7.97;;;18.00;37.60;;;;;;5148557;27;47071;-13
2022/03/19 03:32:11;;;;;;;8.60;7.70;;;18.00;37.50;;;;;;5148288;27;46804;-12
2022/03/19 03:34:39;;;;;;;9.30;8.23;;;18.00;37.50;;;;;;5148505;27;47359;-13
2022/03/19 03:37:05;;;;;;;8.77;7.85;;;18.00;37.50;;;;;;5148109;27;48198;-13
2022/03/19 03:39:32;;;;;;;9.98;7.82;;;18.00;37.60;;;;;;5148273;27;46934;-13
2022/03/19 03:41:59;;;;;;;9.25;8.18;;;18.00;37.50;;;;;;5148087;27;46885;-13
2022/03/19 03:44:27;;;;;;;9.00;7.78;;;18.00;37.50;;;;;;5148291;27;47099;-13
2022/03/19 03:46:53;;;;;;;9.85;8.20;;;18.00;37.50;;;;;;5147915;27;47941;-13
2022/03/19 03:49:20;;;;;;;9.55;7.85;;;17.90;37.50;;;;;;5148155;27;47064;-13
2022/03/19 03:51:47;;;;;;;8.68;7.63;;;17.90;37.50;;;;;;5147946;27;46884;-13
2022/03/19 03:54:13;;;;;;;8.65;7.55;;;18.00;37.40;;;;;;5147997;27;47296;-13
2022/03/19 03:56:40;;;;;;;8.98;7.60;;;18.20;37.20;;;;;;5148236;27;47951;-13
2022/03/19 03:59:07;;;;;;;8.88;7.53;;;18.40;36.90;;;;;;5147526;27;46869;-12
2022/03/19 04:01:35;;;;;;;9.57;8.07;;;18.50;36.60;;;;;;5148201;27;47008;-13
2022/03/19 04:04:02;;;;;;;8.52;7.63;;;18.60;36.40;;;;;;5148171;27;46931;-14
2022/03/19 04:06:29;;;;;;;10.10;8.75;;;18.80;36.20;;;;;;5147685;27;47069;-13
2022/03/19 04:08:56;;;;;;;8.82;7.68;;;18.90;36.00;;;;;;5147493;27;47431;-13
2022/03/19 04:11:23;;;;;;;8.65;7.75;;;19.00;35.80;;;;;;5147566;27;46839;-13
2022/03/19 04:13:49;;;;;;;10.45;8.48;;;19.00;35.50;;;;;;5148002;27;47090;-13
2022/03/19 04:16:16;;;;;;;9.02;8.13;;;19.10;35.50;;;;;;5147823;27;48138;-13
2022/03/19 04:18:45;;;;;;;9.35;7.95;;;19.10;36.00;;;;;;5147428;27;47002;-13
2022/03/19 04:21:11;;;;;;;9.85;7.82;;;19.10;35.30;;;;;;5147755;27;46922;-13
2022/03/19 04:23:38;;;;;;;8.80;7.88;;;19.10;35.20;;;;;;5147771;27;46894;-13
2022/03/19 04:26:05;;;;;;;9.15;8.15;;;19.20;35.10;;;;;;5147442;27;48037;-13
2022/03/19 04:28:31;;;;;;;9.48;8.48;;;19.20;35.20;;;;;;5147514;27;46979;-15
2022/03/19 04:30:58;;;;;;;9.63;8.32;;;19.20;35.10;;;;;;5147509;27;46886;-13
2022/03/19 04:33:25;;;;;;;10.20;8.50;;;19.20;35.10;;;;;;5147405;27;46840;-13
2022/03/19 04:38:38;;;;;;;9.10;8.15;;;19.20;35.10;;;;;;5145016;27;46895;-13
2022/03/19 04:41:05;;;;;;;8.85;7.93;;;19.20;35.10;;;;;;5147343;27;46859;-12
2022/03/19 04:43:31;;;;;;;9.27;8.00;;;19.10;35.00;;;;;;5147177;27;47340;-13
2022/03/19 04:45:58;;;;;;;8.85;7.72;;;19.10;35.00;;;;;;5147070;27;46939;-13
2022/03/19 04:48:27;;;;;;;9.38;8.20;;;19.10;35.00;;;;;;5146963;27;46999;-13
2022/03/19 04:50:55;;;;;;;10.00;8.63;;;19.10;35.00;;;;;;5147261;27;46907;-12
2022/03/19 04:53:22;;;;;;;9.65;8.40;;;19.10;35.10;;;;;;5147080;27;46909;-13
2022/03/19 04:55:49;;;;;;;9.88;8.63;;;19.10;35.10;;;;;;5147333;27;48868;-13
2022/03/19 04:58:16;;;;;;;9.57;8.27;;;19.10;35.20;;;;;;5147700;27;46922;-14
2022/03/19 05:00:42;;;;;;;9.15;8.00;;;19.10;35.20;;;;;;5151233;27;46945;-13
2022/03/19 05:03:09;;;;;;;9.30;8.27;;;19.00;35.10;;;;;;5151314;27;47097;-13
2022/03/19 05:05:36;;;;;;;9.43;8.43;;;19.00;35.30;;;;;;5150748;27;49025;-13
2022/03/19 05:08:05;;;;;;;10.80;8.55;;;19.00;35.30;;;;;;5150705;27;46863;-13
2022/03/19 05:13:17;;;;;;;9.68;8.32;;;18.90;35.30;;;;;;5148135;27;47029;-13
2022/03/19 05:15:44;;;;;;;9.73;8.07;;;18.90;35.30;;;;;;5150454;27;48791;-13
2022/03/19 05:18:11;;;;;;;9.75;8.45;;;18.90;35.40;;;;;;5150450;27;47373;-13
2022/03/19 05:20:37;;;;;;;9.68;8.32;;;18.80;35.50;;;;;;5150798;27;46894;-12
2022/03/19 05:23:07;;;;;;;11.50;8.45;;;18.80;35.40;;;;;;5150794;27;46924;-13
2022/03/19 05:25:34;;;;;;;9.82;8.82;;;18.80;35.50;;;;;;5150333;27;49185;-13
2022/03/19 05:28:00;;;;;;;10.75;8.15;;;18.80;35.50;;;;;;5150475;27;46998;-13
2022/03/19 05:30:27;;;;;;;10.07;8.55;;;18.70;35.50;;;;;;5150486;27;46876;-12
2022/03/19 05:32:54;;;;;;;11.85;9.70;;;18.70;35.50;;;;;;5150722;27;46908;-14
2022/03/19 05:35:21;;;;;;;10.40;9.32;;;18.70;35.50;;;;;;5150405;27;48235;-13
2022/03/19 05:37:48;;;;;;;9.65;8.63;;;18.60;35.60;;;;;;5150531;27;47444;-13
2022/03/19 05:40:16;;;;;;;9.38;8.32;;;18.60;35.50;;;;;;5150196;27;47094;-13
2022/03/19 05:42:43;;;;;;;10.30;8.82;;;18.60;35.60;;;;;;5150497;27;47268;-13
2022/03/19 05:45:10;;;;;;;10.52;9.25;;;18.60;35.60;;;;;;5149880;27;46947;-13
2022/03/19 05:47:38;;;;;;;11.10;8.57;;;18.50;35.50;;;;;;5150336;27;46928;-13
2022/03/19 05:50:05;;;;;;;10.90;9.10;;;18.50;35.50;;;;;;5150162;27;46992;-12
2022/03/19 05:52:32;;;;;;;11.50;9.75;;;18.50;35.50;;;;;;5150239;27;46921;-13
2022/03/19 05:54:58;;;;;;;9.70;8.63;;;18.50;35.50;;;;;;5150029;27;48134;-12
2022/03/19 05:57:26;;;;;;;11.02;9.25;;;18.50;35.50;;;;;;5150114;27;46970;-14
2022/03/19 05:59:53;;;;;;;10.77;9.65;;;18.50;35.50;;;;;;5149940;27;46978;-15
2022/03/19 06:02:20;;;;;;;11.20;9.52;;;18.40;35.50;;;;;;5150359;27;47251;-13
2022/03/19 06:04:46;;;;;;;13.38;9.77;;;18.40;35.50;;;;;;5149411;27;49024;-13
2022/03/19 06:07:13;;;;;;;11.25;9.02;;;18.40;35.60;;;;;;5150075;27;46937;-13
2022/03/19 06:09:40;;;;;;;10.90;9.45;;;18.30;36.20;;;;;;5149205;27;46897;-13
2022/03/19 06:12:07;;;;;;;12.63;9.77;;;18.40;35.60;;;;;;5150161;27;46869;-13
2022/03/19 06:14:35;;;;;;;12.05;9.82;;;18.30;35.60;;;;;;5149667;27;47911;-13
2022/03/19 06:17:02;;;;;;;13.73;10.35;;;18.30;35.60;;;;;;5149893;27;47092;-13
2022/03/19 06:19:29;;;;;;;12.55;9.45;;;18.30;36.30;;;;;;5149475;27;47104;-24
2022/03/19 06:21:56;;;;;;;12.20;10.05;;;18.20;35.60;;;;;;5149703;27;46882;-13
2022/03/19 06:24:23;;;;;;;12.23;9.75;;;18.30;35.70;;;;;;5149167;27;48326;-12
2022/03/19 06:26:50;;;;;;;14.15;11.10;;;18.20;35.60;;;;;;5149412;27;47470;-13
2022/03/19 06:29:17;;;;;;;13.60;10.00;;;18.20;35.70;;;;;;5149436;27;46963;-13
2022/03/19 06:31:45;;;;;;;13.38;9.70;;;18.20;35.70;;;;;;5149896;27;47350;-14
2022/03/19 06:34:11;;;;;;;12.73;10.32;;;18.20;35.80;;;;;;5149310;27;46905;-13
2022/03/19 06:39:22;;;;;;;12.20;10.00;;;18.10;35.80;;;;;;5148100;27;46825;-13
2022/03/19 06:41:49;;;;;;;11.40;9.57;;;18.20;35.90;;;;;;5149612;27;46819;-12
2022/03/19 06:44:15;;;;;;;11.15;9.93;;;18.10;35.90;;;;;;5148827;27;48156;-12
2022/03/19 06:46:42;;;;;;;11.38;9.85;;;18.10;35.80;;;;;;5149333;27;46806;-13
2022/03/19 06:49:10;;;;;;;12.13;9.57;;;18.10;36.00;;;;;;5149401;27;46891;-13
2022/03/19 06:51:37;;;;;;;11.02;9.35;;;18.10;35.90;;;;;;5149510;27;47272;-13
2022/03/19 06:54:04;;;;;;;10.95;9.63;;;18.10;36.00;;;;;;5149050;27;48103;-13
2022/03/19 06:56:31;;;;;;;13.20;10.63;;;18.10;36.00;;;;;;5149015;27;47313;-13
2022/03/19 06:58:58;;;;;;;11.10;9.45;;;18.10;36.00;;;;;;5148926;27;46854;-13
2022/03/19 07:01:25;;;;;;;11.90;10.63;;;18.00;36.10;;;;;;5149114;27;46847;-13
2022/03/19 07:03:51;;;;;;;11.95;10.15;;;18.10;36.20;;;;;;5148728;27;48271;-13
2022/03/19 07:06:20;;;;;;;11.05;9.48;;;18.00;36.00;;;;;;5148765;27;46784;-13
2022/03/19 07:08:46;;;;;;;11.73;10.38;;;18.10;36.20;;;;;;5148898;27;46954;-13
2022/03/19 07:11:13;;;;;;;11.70;10.32;;;18.00;36.70;;;;;;5148856;27;46993;-14
2022/03/19 07:13:41;;;;;;;11.68;10.00;;;18.00;36.10;;;;;;5148909;27;49081;-13
2022/03/19 07:16:08;;;;;;;13.88;10.27;;;18.00;36.20;;;;;;5148821;27;46771;-13
2022/03/19 07:18:35;;;;;;;12.50;10.07;;;18.00;36.20;;;;;;5148636;27;46911;-14
2022/03/19 07:21:01;;;;;;;13.52;10.43;;;18.00;36.20;;;;;;5148124;27;46918;-13
2022/03/19 07:23:29;;;;;;;11.50;9.60;;;18.00;36.20;;;;;;5147893;27;48712;-13
2022/03/19 07:25:59;;;;;;;12.60;10.02;;;18.00;36.20;;;;;;5148704;27;46910;-13
2022/03/19 07:28:26;;;;;;;11.32;9.77;;;18.00;36.30;;;;;;5148358;27;46871;-13
2022/03/19 07:30:53;;;;;;;10.77;9.18;;;18.00;36.30;;;;;;5148625;27;47246;-13
2022/03/19 07:33:20;;;;;;;11.20;9.52;;;18.00;36.30;;;;;;5148193;27;48099;-13
2022/03/19 07:35:46;;;;;;;11.15;9.82;;;18.00;36.40;;;;;;5148696;27;47425;-13
2022/03/19 07:38:13;;;;;;;11.32;9.77;;;18.00;36.40;;;;;;5148544;27;46955;-13
2022/03/19 07:43:25;;;;;;;11.10;9.07;;;17.90;36.50;;;;;;5145674;27;46919;-13
2022/03/19 07:45:52;;;;;;;12.25;9.85;;;17.90;36.50;;;;;;5148280;27;46925;-13
2022/03/19 07:48:19;;;;;;;11.05;8.70;;;17.90;36.50;;;;;;5148316;27;46915;-13
2022/03/19 07:50:46;;;;;;;12.15;10.05;;;17.90;36.50;;;;;;5148629;27;47161;-13
2022/03/19 07:53:13;;;;;;;9.75;8.75;;;17.90;36.60;;;;;;5148237;27;47865;-12
2022/03/19 07:55:41;;;;;;;12.00;9.20;;;18.00;36.60;;;;;;5148002;27;47440;-12
2022/03/19 07:58:08;;;;;;;10.85;9.35;;;18.00;36.50;;;;;;5148135;27;46913;-12
2022/03/19 08:00:34;;;;;;;12.05;10.05;;;18.00;36.60;;;;;;5148559;27;47257;-13
2022/03/19 08:03:01;;;;;;;11.32;9.80;;;17.90;36.60;;;;;;5148302;27;47026;-13
2022/03/19 08:05:28;;;;;;;11.88;10.00;;;18.00;36.60;;;;;;5148158;27;46804;-13
2022/03/19 08:07:55;;;;;;;11.57;10.35;;;18.00;36.70;;;;;;5147941;27;46771;-13
2022/03/19 08:10:21;;;;;;;11.15;9.32;;;18.00;36.60;;;;;;5148355;27;47375;-12
2022/03/19 08:12:49;;;;;;;11.63;9.90;;;18.00;36.60;;;;;;5147745;27;47916;-13
2022/03/19 08:15:17;;;;;;;10.80;9.45;;;18.00;36.50;;;;;;5147671;27;47270;-13
2022/03/19 08:17:44;;;;;;;11.60;9.50;;;18.10;36.60;;;;;;5147789;27;46891;-13
2022/03/19 08:20:11;;;;;;;11.85;9.50;;;18.10;36.60;;;;;;5148041;27;47038;-14
2022/03/19 08:22:38;;;;;;;11.60;10.13;;;18.10;36.60;;;;;;5147877;27;49036;-13
2022/03/19 08:25:07;;;;;;;10.75;9.63;;;18.00;36.50;;;;;;5147423;27;46903;-13
2022/03/19 08:27:33;;;;;;;11.35;9.13;;;18.10;36.60;;;;;;5147915;27;46817;-12
2022/03/19 08:30:03;;;;;;;10.65;9.35;;;18.10;36.40;;;;;;5147939;27;47124;-12
2022/03/19 08:32:30;;;;;;;10.68;9.35;;;18.10;36.30;;;;;;5146930;27;46799;-13
2022/03/19 08:34:57;;;;;;;9.75;8.75;;;18.10;36.30;;;;;;5146923;27;46816;-13
2022/03/19 08:37:24;;;;;;;10.93;9.40;;;18.20;36.30;;;;;;5147498;27;46809;-12
2022/03/19 08:42:35;;;;;;;10.57;9.40;;;18.20;36.30;;;;;;5143828;27;47025;-13
2022/03/19 08:45:04;;;;;;;9.63;8.50;;;18.20;36.30;;;;;;5146368;27;46854;-12
2022/03/19 08:47:31;;;;;;;10.65;9.10;;;18.20;36.30;;;;;;5147034;27;46807;-13
2022/03/19 08:49:57;;;;;;;18.08;9.27;;;18.20;36.30;;;;;;5147539;27;46880;-13
2022/03/19 08:52:26;;;;;;;18.27;10.60;;;18.20;36.20;;;;;;5146999;27;46861;-13
2022/03/19 08:54:52;;;;;;;18.92;11.00;;;18.10;36.30;;;;;;5147026;27;47475;-13
2022/03/19 08:57:20;;;;;;;18.52;13.57;;;18.10;36.20;;;;;;5147439;27;46964;-13
2022/03/19 08:59:46;;;;;;;18.50;13.95;;;18.10;33.00;;;;;;5147220;27;46888;-20
2022/03/19 09:02:14;;;;;;;25.75;16.05;;;18.00;32.10;;;;;;5146822;27;46916;-20
2022/03/19 09:04:41;;;;;;;21.05;15.38;;;17.90;30.80;;;;;;5162143;27;46918;-20
2022/03/19 09:07:08;;;;;;;20.02;15.18;;;17.90;31.10;;;;;;5161009;27;47217;-13
2022/03/19 09:09:36;;;;;;;17.92;13.55;;;17.90;31.00;;;;;;5147289;27;47014;-21
2022/03/19 09:12:03;;;;;;;21.50;12.98;;;18.00;31.10;;;;;;5145051;27;48196;-20
2022/03/19 09:14:29;;;;;;;17.58;12.85;;;18.00;30.50;;;;;;5156228;27;46828;-20
2022/03/19 09:16:56;;;;;;;19.02;13.55;;;18.10;30.10;;;;;;5166003;27;46943;-20
2022/03/19 09:19:27;;;;;;;18.33;13.90;;;18.20;29.60;;;;;;5167414;27;46972;-20
2022/03/19 09:21:53;;;;;;;16.52;12.35;;;18.30;29.30;;;;;;5152147;27;47848;-20
2022/03/19 09:24:20;;;;;;;17.25;13.77;;;18.40;29.00;;;;;;5151140;27;46993;-21
2022/03/19 09:26:47;;;;;;;18.15;12.77;;;18.40;29.00;;;;;;5141372;27;47028;-20
2022/03/19 09:29:15;;;;;;;21.60;14.50;;;18.50;28.90;;;;;;5142922;27;47361;-20
2022/03/19 09:31:42;;;;;;;18.33;13.60;;;18.50;29.00;;;;;;5153179;27;47274;-20
2022/03/19 09:34:09;;;;;;;20.58;13.25;;;18.60;29.10;;;;;;5153639;27;47244;-19
2022/03/19 09:36:37;;;;;;;22.17;14.55;;;18.60;28.90;;;;;;5127915;27;46791;-19
2022/03/19 09:39:04;;;;;;;18.13;14.10;;;18.60;29.10;;;;;;5156279;27;47041;-20
2022/03/19 09:41:31;;;;;;;18.90;13.23;;;18.70;29.50;;;;;;5153039;27;47282;-19
2022/03/19 09:43:58;;;;;;;17.13;12.90;;;18.70;28.80;;;;;;5153724;27;46805;-19
2022/03/19 09:46:25;;;;;;;14.93;11.93;;;18.80;27.90;;;;;;5149229;27;46858;-19
2022/03/19 09:48:53;;;;;;;16.30;11.70;;;18.80;27.80;;;;;;5169679;27;47376;-20
2022/03/19 09:51:19;;;;;;;15.65;12.82;;;18.80;28.60;;;;;;5159378;27;48843;-20
2022/03/19 09:53:48;;;;;;;18.08;12.65;;;18.80;27.60;;;;;;5170658;27;47474;-20
2022/03/19 09:56:16;;;;;;;18.10;12.75;;;18.80;27.30;;;;;;5158064;27;46922;-20
2022/03/19 09:58:43;;;;;;;16.65;12.82;;;18.80;28.10;;;;;;5170703;27;46903;-20
2022/03/19 10:01:10;;;;;;;17.40;13.65;;;18.80;28.30;;;;;;5158267;27;49030;-20
2022/03/19 10:03:40;;;;;;;23.35;12.80;;;18.80;28.40;;;;;;5170251;27;46936;-20
2022/03/19 10:08:57;;;;;;;17.60;12.75;;;18.90;29.30;;;;;;5168979;27;47044;-20
2022/03/19 10:11:25;;;;;;;17.88;11.65;;;18.80;29.00;;;;;;5165807;27;48086;-20
2022/03/19 10:13:52;;;;;;;20.92;12.77;;;18.90;28.90;;;;;;5170563;27;46910;-20
2022/03/19 10:16:23;;;;;;;19.20;12.32;;;18.90;28.20;;;;;;5157755;27;46848;-20
2022/03/19 10:18:54;;;;;;;15.90;11.63;;;18.90;28.20;;;;;;5149777;27;47024;-20
2022/03/19 10:21:21;;;;;;;18.00;14.02;;;18.90;28.30;;;;;;5146073;27;48270;-20
2022/03/19 10:23:48;;;;;;;21.92;13.18;;;19.00;28.10;;;;;;5148388;27;46860;-20
2022/03/19 10:26:34;;;;;;;17.73;12.13;;;19.00;27.90;;;;;;5148613;27;46957;-20
2022/03/19 10:29:01;;;;;;;15.85;12.48;;;19.00;28.10;;;;;;5164657;27;47131;-20
2022/03/19 10:31:32;;;;;;;18.58;12.98;;;19.00;28.00;;;;;;5146417;27;48949;-20
2022/03/19 10:33:59;;;;;;;18.20;11.20;;;19.00;28.20;;;;;;5148341;27;46761;-19
2022/03/19 10:36:30;;;;;;;17.83;12.10;;;19.10;28.50;;;;;;5149990;27;46833;-20
2022/03/19 10:38:57;;;;;;;15.55;11.50;;;19.10;27.90;;;;;;5148527;27;47041;-20
2022/03/19 10:41:23;;;;;;;13.50;10.43;;;19.10;27.90;;;;;;5131178;27;48884;-20
2022/03/19 10:43:51;;;;;;;15.48;10.45;;;19.10;28.20;;;;;;5141791;27;46897;-20
2022/03/19 10:46:18;;;;;;;13.27;11.38;;;19.20;28.00;;;;;;5132250;27;46884;-19
2022/03/19 10:48:49;;;;;;;17.25;12.02;;;19.20;27.30;;;;;;5140795;27;46926;-20
2022/03/19 10:51:17;;;;;;;17.38;11.60;;;19.30;27.50;;;;;;5148717;27;48129;-20
2022/03/19 10:53:44;;;;;;;14.40;11.15;;;19.30;27.80;;;;;;5148495;27;46970;-20
2022/03/19 10:56:10;;;;;;;18.52;11.30;;;19.30;27.20;;;;;;5132207;27;46981;-20
2022/03/19 10:58:37;;;;;;;15.70;12.52;;;19.30;27.50;;;;;;5138241;27;47109;-20
2022/03/19 11:01:05;;;;;;;15.88;11.85;;;19.40;27.50;;;;;;5148795;27;46962;-21
2022/03/19 11:03:32;;;;;;;17.65;11.63;;;19.40;27.60;;;;;;5165215;27;46825;-20
2022/03/19 11:06:03;;;;;;;19.00;12.57;;;19.40;27.40;;;;;;5166193;27;46995;-20
2022/03/19 11:08:29;;;;;;;17.85;12.65;;;19.40;27.00;;;;;;5165703;27;46982;-20
2022/03/19 11:10:57;;;;;;;21.42;13.73;;;19.40;27.30;;;;;;5154779;27;48783;-20
2022/03/19 11:13:23;;;;;;;20.27;13.43;;;19.50;27.80;;;;;;5152237;27;47495;-19
2022/03/19 11:15:51;;;;;;;16.85;12.20;;;19.50;27.90;;;;;;5156608;27;47005;-20
2022/03/19 11:18:20;;;;;;;15.75;12.15;;;19.60;28.00;;;;;;5150130;27;47283;-20
2022/03/19 11:20:46;;;;;;;20.52;13.25;;;19.60;27.80;;;;;;5161595;27;46940;-19
2022/03/19 11:23:13;;;;;;;17.73;13.55;;;19.70;27.80;;;;;;5167504;27;46950;-19
2022/03/19 11:25:45;;;;;;;21.20;14.15;;;19.70;27.90;;;;;;5157795;27;46974;-19
2022/03/19 11:28:12;;;;;;;24.60;13.45;;;19.80;27.80;;;;;;5149125;27;47023;-20
2022/03/19 11:30:40;;;;;;;16.70;12.88;;;19.80;28.00;;;;;;5157157;27;47768;-19
2022/03/19 11:33:09;;;;;;;20.27;13.30;;;19.80;27.80;;;;;;5147563;27;46988;-20
2022/03/19 11:35:39;;;;;;;20.92;13.13;;;19.90;28.10;;;;;;5158236;27;46827;-20
2022/03/19 11:38:10;;;;;;;18.73;12.90;;;20.00;28.20;;;;;;5147489;27;47385;-20
2022/03/19 11:40:37;;;;;;;18.38;13.00;;;20.10;27.70;;;;;;5138230;27;47846;-21
2022/03/19 11:43:05;;;;;;;18.45;13.40;;;20.20;27.80;;;;;;5148100;27;47319;-20
2022/03/19 11:45:40;;;;;;;22.48;13.07;;;20.30;27.20;;;;;;5156555;27;46933;-19
2022/03/19 11:48:34;;;;;;;16.58;13.02;;;20.20;27.00;;;;;;5148399;27;46856;-21
2022/03/19 11:51:18;;;;;;;16.45;12.98;;;20.10;27.40;;;;;;5142165;27;47419;-21
2022/03/19 11:53:52;;;;;;;17.08;12.63;;;20.10;27.80;;;;;;5154175;27;47449;-20
2022/03/19 11:56:19;;;;;;;19.55;13.25;;;20.00;27.20;;;;;;5131022;27;47052;-20
2022/03/19 11:58:46;;;;;;;17.67;12.70;;;19.90;27.00;;;;;;5138254;27;47374;-21
2022/03/19 12:01:12;;;;;;;18.40;13.95;;;19.90;27.00;;;;;;5158089;27;47879;-14
2022/03/19 12:04:04;;;;;;;19.50;14.20;;;19.80;27.10;;;;;;5167749;27;47163;-13
2022/03/19 12:06:36;;;;;;;18.25;14.20;;;19.80;27.40;;;;;;5128860;27;47078;-14
2022/03/19 12:09:03;;;;;;;20.23;14.50;;;19.80;27.90;;;;;;5136297;27;46943;-13
2022/03/19 12:11:32;;;;;;;18.77;14.18;;;19.90;27.80;;;;;;5147287;27;47057;-13
2022/03/19 12:13:59;;;;;;;20.70;14.23;;;19.90;27.80;;;;;;5155038;27;47225;-13
2022/03/19 12:16:39;;;;;;;21.70;14.70;;;20.00;27.80;;;;;;5150485;27;46970;-13
2022/03/19 12:19:06;;;;;;;17.27;13.38;;;20.00;27.80;;;;;;5166269;27;46889;-13
2022/03/19 12:21:38;;;;;;;18.17;14.35;;;20.10;27.70;;;;;;5149443;27;46770;-14
2022/03/19 12:24:36;;;;;;;20.50;15.60;;;20.10;28.10;;;;;;5156763;27;47443;-14
2022/03/19 12:27:04;;;;;;;18.40;14.30;;;20.10;28.40;;;;;;5120680;27;47022;-14
2022/03/19 12:29:32;;;;;;;22.77;15.55;;;20.00;28.20;;;;;;5165500;27;46868;-14
2022/03/19 12:31:59;;;;;;;17.08;14.32;;;19.90;28.30;;;;;;5145544;27;49024;-14
2022/03/19 12:34:27;;;;;;;22.60;15.30;;;19.90;28.60;;;;;;5146152;27;46937;-16
2022/03/19 12:36:59;;;;;;;18.75;15.02;;;19.90;28.70;;;;;;5143772;27;47148;-14
2022/03/19 12:39:26;;;;;;;22.55;15.75;;;19.90;28.40;;;;;;5144252;27;47074;-14
2022/03/19 12:41:53;;;;;;;19.45;14.95;;;19.90;28.30;;;;;;5154616;27;48786;-14
2022/03/19 12:44:21;;;;;;;19.50;15.35;;;20.00;28.30;;;;;;5167238;27;46828;-14
2022/03/19 12:46:49;;;;;;;19.45;14.02;;;19.90;28.30;;;;;;5147039;27;46943;-14
2022/03/19 12:49:17;;;;;;;18.77;14.40;;;19.90;28.30;;;;;;5163189;27;46968;-14
2022/03/19 12:51:45;;;;;;;18.55;13.48;;;20.00;28.40;;;;;;5147009;27;48080;-14
2022/03/19 12:54:24;;;;;;;17.77;12.73;;;20.00;28.10;;;;;;5146724;27;46900;-14
2022/03/19 12:56:51;;;;;;;17.67;13.07;;;20.00;28.20;;;;;;5140879;27;46914;-14